createdAt,value
2018-07-10T00:03:24.954Z,91.20
2018-07-10T00:06:16.625Z,91.16
2018-07-10T00:09:32.211Z,91.37
2018-07-10T00:12:01.960Z,91.21
2018-07-10T00:14:31.633Z,91.11
2018-07-10T00:17:01.284Z,91.07
2018-07-10T00:19:31.246Z,90.91
2018-07-10T00:22:01.122Z,90.64
2018-07-10T00:24:31.020Z,90.83
2018-07-10T00:27:01.035Z,91.04
2018-07-10T00:29:30.650Z,90.55
2018-07-10T00:32:00.751Z,90.21
2018-07-10T00:34:30.854Z,91.29
2018-07-10T00:37:00.871Z,90.50
2018-07-10T00:39:30.636Z,90.59
2018-07-10T00:42:00.510Z,90.31
2018-07-10T00:44:30.214Z,90.38
2018-07-10T00:46:59.878Z,90.95
2018-07-10T00:49:29.966Z,90.25
2018-07-10T00:52:00.052Z,90.12
2018-07-10T00:54:30.149Z,89.85
2018-07-10T00:57:00.155Z,88.87
2018-07-10T00:59:30.232Z,88.62
2018-07-10T01:02:00.220Z,88.47
2018-07-10T01:04:29.873Z,88.34
2018-07-10T01:06:59.807Z,88.67
2018-07-10T01:09:29.731Z,88.61
2018-07-10T01:11:59.534Z,89.01
2018-07-10T01:14:29.163Z,88.88
2018-07-10T01:16:58.986Z,88.67
2018-07-10T01:19:28.770Z,88.70
2018-07-10T01:21:58.534Z,88.46
2018-07-10T01:24:28.548Z,88.24
2018-07-10T01:26:58.367Z,88.56
2018-07-10T01:29:33.285Z,88.72
2018-07-10T01:32:03.276Z,88.09
2018-07-10T01:34:33.326Z,87.82
2018-07-10T01:37:03.739Z,87.77
2018-07-10T01:39:33.637Z,87.60
2018-07-10T01:42:03.497Z,86.52
2018-07-10T01:44:33.215Z,84.41
2018-07-10T01:47:03.027Z,84.54
2018-07-10T01:49:32.923Z,84.58
2018-07-10T01:52:02.972Z,85.14
2018-07-10T01:54:32.674Z,85.53
2018-07-10T01:57:02.842Z,85.48
2018-07-10T01:59:32.753Z,86.39
2018-07-10T02:02:02.504Z,87.02
2018-07-10T02:04:32.520Z,87.71
2018-07-10T02:07:02.410Z,87.91
2018-07-10T02:09:32.319Z,88.08
2018-07-10T02:12:02.072Z,88.35
2018-07-10T02:14:31.869Z,88.26
2018-07-10T02:17:01.649Z,88.53
2018-07-10T02:19:31.680Z,88.76
2018-07-10T02:22:01.638Z,89.20
2018-07-10T02:24:31.504Z,89.00
2018-07-10T02:27:01.627Z,89.48
2018-07-10T02:29:31.626Z,88.92
2018-07-10T02:32:01.451Z,88.83
2018-07-10T02:34:31.416Z,88.72
2018-07-10T02:37:03.209Z,88.88
2018-07-10T02:39:33.150Z,89.50
2018-07-10T02:42:03.235Z,89.84
2018-07-10T02:44:32.851Z,89.13
2018-07-10T02:47:03.324Z,89.58
2018-07-10T02:49:32.990Z,89.21
2018-07-10T02:52:05.072Z,89.79
2018-07-10T02:54:36.859Z,89.45
2018-07-10T02:57:08.636Z,89.48
2018-07-10T02:59:42.007Z,89.72
2018-07-10T03:02:20.686Z,89.79
2018-07-10T03:05:00.972Z,89.66
2018-07-10T03:07:32.356Z,89.34
2018-07-10T03:10:02.617Z,89.34
2018-07-10T03:12:35.023Z,89.00
2018-07-10T03:15:08.148Z,88.95
2018-07-10T03:17:38.315Z,88.71
2018-07-10T03:20:09.139Z,88.52
2018-07-10T03:22:39.058Z,88.37
2018-07-10T03:25:09.619Z,88.73
2018-07-10T03:27:39.782Z,88.50
2018-07-10T03:30:09.510Z,87.84
2018-07-10T03:32:39.545Z,88.18
2018-07-10T03:35:09.283Z,88.33
2018-07-10T03:37:39.137Z,87.53
2018-07-10T03:40:08.854Z,87.69
2018-07-10T03:42:38.671Z,88.22
2018-07-10T03:45:08.394Z,88.58
2018-07-10T03:47:38.262Z,88.17
2018-07-10T03:50:08.150Z,87.68
2018-07-10T03:52:38.223Z,88.16
2018-07-10T03:55:11.054Z,87.27
2018-07-10T03:57:41.065Z,87.79
2018-07-10T04:00:13.052Z,87.88
2018-07-10T04:02:44.343Z,87.31
2018-07-10T04:05:14.474Z,85.56
2018-07-10T04:07:45.258Z,85.36
2018-07-10T04:10:18.442Z,86.04
2018-07-10T04:12:50.294Z,85.75
2018-07-10T04:15:20.476Z,85.99
2018-07-10T04:18:04.365Z,85.78
2018-07-10T04:21:46.747Z,86.02
2018-07-10T04:24:19.558Z,86.59
2018-07-10T04:26:58.037Z,86.57
2018-07-10T04:29:48.718Z,86.20
2018-07-10T04:32:18.879Z,86.47
2018-07-10T04:34:49.979Z,85.40
2018-07-10T04:37:19.909Z,85.05
2018-07-10T04:39:49.680Z,85.00
2018-07-10T04:42:23.835Z,84.92
2018-07-10T04:45:08.655Z,85.25
2018-07-10T04:47:44.502Z,84.87
2018-07-10T04:50:22.619Z,84.49
2018-07-10T04:53:01.503Z,84.12
2018-07-10T04:55:32.594Z,81.60
2018-07-10T04:58:05.955Z,81.08
2018-07-10T05:00:39.024Z,80.20
2018-07-10T05:03:08.926Z,81.01
2018-07-10T05:05:38.895Z,82.87
2018-07-10T05:08:08.635Z,81.24
2018-07-10T05:10:38.247Z,81.43
2018-07-10T05:13:08.249Z,80.52
2018-07-10T05:15:40.145Z,81.50
2018-07-10T05:18:11.418Z,82.61
2018-07-10T05:20:45.163Z,82.72
2018-07-10T05:23:16.579Z,80.97
2018-07-10T05:25:55.130Z,82.21
2018-07-10T05:28:27.054Z,81.08
2018-07-10T05:30:59.916Z,80.79
2018-07-10T05:33:30.476Z,81.12
2018-07-10T05:36:01.731Z,81.53
2018-07-10T05:38:40.989Z,81.92
2018-07-10T05:41:13.890Z,81.84
2018-07-10T05:43:49.855Z,82.74
2018-07-10T05:46:22.318Z,82.96
2018-07-10T05:49:07.998Z,82.92
2018-07-10T05:51:49.775Z,83.01
2018-07-10T05:54:19.571Z,82.35
2018-07-10T05:56:50.318Z,82.27
2018-07-10T05:59:20.116Z,81.20
2018-07-10T06:01:49.908Z,81.63
2018-07-10T06:04:19.883Z,79.72
2018-07-10T06:06:49.801Z,80.48
2018-07-10T06:09:19.600Z,83.17
2018-07-10T06:11:49.249Z,82.80
2018-07-10T06:14:19.207Z,82.00
2018-07-10T06:16:51.335Z,82.92
2018-07-10T06:19:21.382Z,84.03
2018-07-10T06:21:51.826Z,83.40
2018-07-10T06:24:26.716Z,82.47
2018-07-10T06:27:07.376Z,82.69
2018-07-10T06:29:50.470Z,82.56
2018-07-10T06:32:22.103Z,84.24
2018-07-10T06:34:57.381Z,84.70
2018-07-10T06:37:34.430Z,84.38
2018-07-10T06:40:06.522Z,84.17
2018-07-10T06:42:51.611Z,82.39
2018-07-10T06:45:21.470Z,83.61
2018-07-10T06:47:51.492Z,82.92
2018-07-10T06:50:22.482Z,83.83
2018-07-10T06:52:53.694Z,83.35
2018-07-10T06:55:23.696Z,81.86
2018-07-10T06:57:55.004Z,81.98
2018-07-10T07:00:25.262Z,81.86
2018-07-10T07:02:55.190Z,82.42
2018-07-10T07:05:25.168Z,79.74
2018-07-10T07:07:54.886Z,81.68
2018-07-10T07:10:25.861Z,79.95
2018-07-10T07:12:55.894Z,79.28
2018-07-10T07:15:25.759Z,79.91
2018-07-10T07:17:55.628Z,78.20
2018-07-10T07:20:25.445Z,80.12
2018-07-10T07:22:55.302Z,78.84
2018-07-10T07:25:25.060Z,77.42
2018-07-10T07:27:54.862Z,74.54
2018-07-10T07:30:24.717Z,72.80
2018-07-10T07:32:54.441Z,72.51
2018-07-10T07:35:24.074Z,73.60
2018-07-10T07:37:53.630Z,69.05
2018-07-10T07:40:23.435Z,71.66
2018-07-10T07:42:53.071Z,74.93
2018-07-10T07:45:22.871Z,73.18
2018-07-10T07:47:53.274Z,68.93
2018-07-10T07:50:23.192Z,68.62
2018-07-10T07:52:53.112Z,69.30
2018-07-10T07:55:23.175Z,70.14
2018-07-10T07:57:52.950Z,68.74
2018-07-10T08:00:22.813Z,69.62
2018-07-10T08:02:53.033Z,66.83
2018-07-10T08:05:22.842Z,70.91
2018-07-10T08:07:52.609Z,68.27
2018-07-10T08:10:22.490Z,63.59
2018-07-10T08:12:52.400Z,61.86
2018-07-10T08:15:22.503Z,61.24
2018-07-10T08:17:52.483Z,62.45
2018-07-10T08:20:22.539Z,67.27
2018-07-10T08:22:52.558Z,69.06
2018-07-10T08:25:24.687Z,67.46
2018-07-10T08:27:55.043Z,68.78
2018-07-10T08:30:25.244Z,67.71
2018-07-10T08:32:55.258Z,67.71
2018-07-10T08:35:25.078Z,65.85
2018-07-10T08:37:54.850Z,66.55
2018-07-10T08:40:24.613Z,64.51
2018-07-10T08:42:54.714Z,65.91
2018-07-10T08:45:24.799Z,67.69
2018-07-10T08:47:54.963Z,66.27
2018-07-10T08:50:25.063Z,64.10
2018-07-10T08:52:55.253Z,66.72
2018-07-10T08:55:25.426Z,63.44
2018-07-10T08:57:55.675Z,64.48
2018-07-10T09:00:25.874Z,62.94
2018-07-10T09:02:55.981Z,62.60
2018-07-10T09:05:25.782Z,61.93
2018-07-10T09:07:55.672Z,63.30
2018-07-10T09:10:25.799Z,63.50
2018-07-10T09:12:55.952Z,64.29
2018-07-10T09:15:29.281Z,64.67
2018-07-10T09:17:59.275Z,64.61
2018-07-10T09:20:33.841Z,62.96
2018-07-10T09:23:04.085Z,63.51
2018-07-10T09:25:34.162Z,62.07
2018-07-10T09:28:04.452Z,61.33
2018-07-10T09:30:34.587Z,62.40
2018-07-10T09:33:04.816Z,60.93
2018-07-10T09:35:34.576Z,59.81
2018-07-10T09:38:04.474Z,59.93
2018-07-10T09:40:34.943Z,60.96
2018-07-10T09:43:05.422Z,60.15
2018-07-10T09:45:37.002Z,59.89
2018-07-10T09:48:08.232Z,58.56
2018-07-10T09:50:38.910Z,59.34
2018-07-10T09:53:09.108Z,58.46
2018-07-10T09:55:39.176Z,60.88
2018-07-10T09:58:09.551Z,58.86
2018-07-10T10:00:44.628Z,54.90
2018-07-10T10:03:14.495Z,55.65
2018-07-10T10:05:45.318Z,54.63
2018-07-10T10:08:15.117Z,53.68
2018-07-10T10:10:45.151Z,51.67
2018-07-10T10:13:15.286Z,53.04
2018-07-10T10:15:45.394Z,54.54
2018-07-10T10:18:15.507Z,57.08
2018-07-10T10:20:46.597Z,58.77
2018-07-10T10:23:16.578Z,58.61
2018-07-10T10:25:50.458Z,58.83
2018-07-10T10:28:23.260Z,58.58
2018-07-10T10:30:53.396Z,57.19
2018-07-10T10:33:23.213Z,56.44
2018-07-10T10:35:53.076Z,57.32
2018-07-10T10:38:24.125Z,57.20
2018-07-10T10:40:54.353Z,56.42
2018-07-10T10:43:24.568Z,57.23
2018-07-10T10:45:54.604Z,57.94
2018-07-10T10:48:24.864Z,57.42
2018-07-10T10:50:54.990Z,58.47
2018-07-10T10:53:25.117Z,59.17
2018-07-10T10:55:55.231Z,59.01
2018-07-10T10:58:25.429Z,59.16
2018-07-10T11:00:55.606Z,58.41
2018-07-10T11:03:25.526Z,58.36
2018-07-10T11:05:55.390Z,57.58
2018-07-10T11:08:25.526Z,55.58
2018-07-10T11:10:55.673Z,53.28
2018-07-10T11:13:25.786Z,54.16
2018-07-10T11:15:56.057Z,54.47
2018-07-10T11:18:37.437Z,52.04
2018-07-10T11:22:12.902Z,52.37
2018-07-10T11:24:58.097Z,51.08
2018-07-10T11:28:31.540Z,53.02
2018-07-10T11:31:01.532Z,51.14
2018-07-10T11:33:31.363Z,51.73
2018-07-10T11:36:01.184Z,50.87
2018-07-10T11:38:31.325Z,52.44
2018-07-10T11:41:01.525Z,53.35
2018-07-10T11:43:31.795Z,54.53
2018-07-10T11:46:01.691Z,54.04
2018-07-10T11:48:31.570Z,54.60
2018-07-10T11:51:01.445Z,55.29
2018-07-10T11:53:31.351Z,54.87
2018-07-10T11:56:01.196Z,55.70
2018-07-10T11:58:30.996Z,54.64
2018-07-10T12:01:00.691Z,54.26
2018-07-10T12:03:37.297Z,52.76
2018-07-10T12:06:07.863Z,53.51
2018-07-10T12:08:37.894Z,54.15
2018-07-10T12:11:16.512Z,55.10
2018-07-10T12:13:46.193Z,55.04
2018-07-10T12:16:15.909Z,53.99
2018-07-10T12:18:45.947Z,54.34
2018-07-10T12:21:17.005Z,53.94
2018-07-10T12:23:47.196Z,53.55
2018-07-10T12:26:17.307Z,54.45
2018-07-10T12:28:47.443Z,52.40
2018-07-10T12:31:17.421Z,52.91
2018-07-10T12:33:47.212Z,52.81
2018-07-10T12:36:16.787Z,51.94
2018-07-10T12:38:46.480Z,53.51
2018-07-10T12:41:16.371Z,54.02
2018-07-10T12:43:46.198Z,54.62
2018-07-10T12:46:16.144Z,54.39
2018-07-10T12:48:46.310Z,53.76
2018-07-10T12:51:16.302Z,53.69
2018-07-10T12:53:46.198Z,52.69
2018-07-10T12:56:15.964Z,53.14
2018-07-10T12:58:45.570Z,50.64
2018-07-10T13:01:15.595Z,52.08
2018-07-10T13:03:45.282Z,50.57
2018-07-10T13:06:15.464Z,49.73
2018-07-10T13:08:45.123Z,49.72
2018-07-10T13:11:14.825Z,50.27
2018-07-10T13:13:44.759Z,48.58
2018-07-10T13:16:14.746Z,48.62
2018-07-10T13:18:44.408Z,48.37
2018-07-10T13:21:14.551Z,47.60
2018-07-10T13:23:44.663Z,47.06
2018-07-10T13:26:14.712Z,46.49
2018-07-10T13:28:44.550Z,46.25
2018-07-10T13:31:14.229Z,47.66
2018-07-10T13:33:43.994Z,45.95
2018-07-10T13:36:14.135Z,46.20
2018-07-10T13:38:43.988Z,45.54
2018-07-10T13:41:13.737Z,43.79
2018-07-10T13:43:43.750Z,44.66
2018-07-10T13:46:13.736Z,44.86
2018-07-10T13:48:43.713Z,44.84
2018-07-10T13:51:13.567Z,45.97
2018-07-10T13:53:43.279Z,47.52
2018-07-10T13:56:13.387Z,46.36
2018-07-10T13:58:43.214Z,45.15
2018-07-10T14:01:13.186Z,45.49
2018-07-10T14:03:42.940Z,44.20
2018-07-10T14:06:12.998Z,43.27
2018-07-10T14:08:42.944Z,42.79
2018-07-10T14:11:12.634Z,43.82
2018-07-10T14:13:42.725Z,44.68
2018-07-10T14:16:12.795Z,47.16
2018-07-10T14:18:42.695Z,47.17
2018-07-10T14:21:12.881Z,45.33
2018-07-10T14:23:42.673Z,46.68
2018-07-10T14:26:12.495Z,47.11
2018-07-10T14:28:42.162Z,47.22
2018-07-10T14:31:11.834Z,47.06
2018-07-10T14:33:41.623Z,46.28
2018-07-10T14:36:11.807Z,46.62
2018-07-10T14:38:42.895Z,47.11
2018-07-10T14:41:14.228Z,47.90
2018-07-10T14:43:46.175Z,47.68
2018-07-10T14:46:17.791Z,48.28
2018-07-10T14:48:53.030Z,48.68
2018-07-10T14:51:26.052Z,48.81
2018-07-10T14:53:56.108Z,49.11
2018-07-10T14:56:26.135Z,50.06
2018-07-10T14:58:57.275Z,50.17
2018-07-10T15:01:27.094Z,49.40
2018-07-10T15:03:57.589Z,49.18
2018-07-10T15:06:27.871Z,49.48
2018-07-10T15:08:57.808Z,48.98
2018-07-10T15:11:27.991Z,47.01
2018-07-10T15:14:03.354Z,46.22
2018-07-10T15:16:38.312Z,47.93
2018-07-10T15:19:08.340Z,46.23
2018-07-10T15:21:38.571Z,44.46
2018-07-10T15:24:09.526Z,43.72
2018-07-10T15:26:39.383Z,43.64
2018-07-10T15:29:09.131Z,43.44
2018-07-10T15:31:39.050Z,44.99
2018-07-10T15:34:08.954Z,45.81
2018-07-10T15:36:39.023Z,47.01
2018-07-10T15:39:08.779Z,46.70
2018-07-10T15:41:38.812Z,47.10
2018-07-10T15:44:08.442Z,48.68
2018-07-10T15:46:38.048Z,48.75
2018-07-10T15:49:07.727Z,48.78
2018-07-10T15:51:37.334Z,49.21
2018-07-10T15:54:07.357Z,49.88
2018-07-10T15:56:37.056Z,49.23
2018-07-10T15:59:06.809Z,51.28
2018-07-10T16:01:37.015Z,51.14
2018-07-10T16:04:06.994Z,51.98
2018-07-10T16:06:37.623Z,51.90
2018-07-10T16:09:14.187Z,52.34
2018-07-10T16:11:44.174Z,53.25
2018-07-10T16:14:13.818Z,53.87
2018-07-10T16:16:43.794Z,53.96
2018-07-10T16:19:17.262Z,54.08
2018-07-10T16:21:56.585Z,54.08
2018-07-10T16:24:26.216Z,54.86
2018-07-10T16:26:56.079Z,54.83
2018-07-10T16:29:26.243Z,54.67
2018-07-10T16:32:00.031Z,55.03
2018-07-10T16:34:29.975Z,55.70
2018-07-10T16:37:00.065Z,55.86
2018-07-10T16:39:29.950Z,55.91
2018-07-10T16:42:04.841Z,56.16
2018-07-10T16:44:36.003Z,56.43
2018-07-10T16:47:10.811Z,56.63
2018-07-10T16:49:47.389Z,56.40
2018-07-10T16:53:22.977Z,56.62
2018-07-10T16:55:52.693Z,57.74
2018-07-10T16:58:22.607Z,57.69
2018-07-10T17:00:52.731Z,56.58
2018-07-10T17:03:22.503Z,57.05
2018-07-10T17:05:52.492Z,57.06
2018-07-10T17:08:22.458Z,57.66
2018-07-10T17:10:52.679Z,56.93
2018-07-10T17:13:22.863Z,58.02
2018-07-10T17:15:52.842Z,57.77
2018-07-10T17:18:22.919Z,58.11
2018-07-10T17:20:52.785Z,58.20
2018-07-10T17:23:22.518Z,58.82
2018-07-10T17:25:52.355Z,58.68
2018-07-10T17:28:22.178Z,58.93
2018-07-10T17:30:52.122Z,59.95
2018-07-10T17:33:22.486Z,59.75
2018-07-10T17:35:52.380Z,59.83
2018-07-10T17:38:22.263Z,59.51
2018-07-10T17:40:52.457Z,59.37
2018-07-10T17:43:23.083Z,59.50
2018-07-10T17:45:53.463Z,59.39
2018-07-10T17:48:23.981Z,59.87
2018-07-10T17:50:53.838Z,60.00
2018-07-10T17:53:23.924Z,60.78
2018-07-10T17:55:53.655Z,60.78
2018-07-10T17:58:23.754Z,60.64
2018-07-10T18:00:53.728Z,60.34
2018-07-10T18:03:23.395Z,60.83
2018-07-10T18:05:53.321Z,61.48
2018-07-10T18:08:23.412Z,62.29
2018-07-10T18:10:53.478Z,62.93
2018-07-10T18:13:23.351Z,63.53
2018-07-10T18:15:53.231Z,64.54
2018-07-10T18:18:23.270Z,64.46
2018-07-10T18:20:53.243Z,65.02
2018-07-10T18:23:23.125Z,65.97
2018-07-10T18:25:52.824Z,65.90
2018-07-10T18:28:22.377Z,65.76
2018-07-10T18:30:52.216Z,66.71
2018-07-10T18:33:22.178Z,67.05
2018-07-10T18:35:52.246Z,67.78
2018-07-10T18:38:22.011Z,67.99
2018-07-10T18:40:52.026Z,68.29
2018-07-10T18:43:21.794Z,68.69
2018-07-10T18:45:51.865Z,68.97
2018-07-10T18:48:25.641Z,69.08
2018-07-10T18:50:56.647Z,68.78
2018-07-10T18:53:27.399Z,68.65
2018-07-10T18:55:57.131Z,68.59
2018-07-10T18:58:30.327Z,68.39
2018-07-10T19:01:52.732Z,68.23
2018-07-10T19:04:28.830Z,69.13
2018-07-10T19:06:58.783Z,69.81
2018-07-10T19:09:33.864Z,68.78
2018-07-10T19:12:05.647Z,68.67
2018-07-10T19:14:35.647Z,69.48
2018-07-10T19:17:09.666Z,69.16
2018-07-10T19:19:39.403Z,68.83
2018-07-10T19:22:11.942Z,68.82
2018-07-10T19:24:42.922Z,69.04
2018-07-10T19:27:24.496Z,68.74
2018-07-10T19:29:57.366Z,68.29
2018-07-10T19:32:27.461Z,67.59
2018-07-10T19:35:00.797Z,66.81
2018-07-10T19:37:32.548Z,67.04
2018-07-10T19:40:02.700Z,67.49
2018-07-10T19:42:33.946Z,67.70
2018-07-10T19:45:05.179Z,67.34
2018-07-10T19:47:35.357Z,66.43
2018-07-10T19:50:13.591Z,67.00
2018-07-10T19:52:45.967Z,66.77
2018-07-10T19:55:15.851Z,66.46
2018-07-10T19:58:07.276Z,65.87
2018-07-10T20:00:43.652Z,66.49
2018-07-10T20:03:23.618Z,66.12
2018-07-10T20:05:53.438Z,65.89
2018-07-10T20:08:23.282Z,65.88
2018-07-10T20:10:58.349Z,66.22
2018-07-10T20:13:58.534Z,66.59
2018-07-10T20:16:51.706Z,66.55
2018-07-10T20:19:34.076Z,66.55
2018-07-10T20:22:10.517Z,66.99
2018-07-10T20:24:44.435Z,67.06
2018-07-10T20:27:27.058Z,67.17
2018-07-10T20:30:09.023Z,67.06
2018-07-10T20:32:46.480Z,67.21
2018-07-10T20:35:22.085Z,67.53
2018-07-10T20:37:51.746Z,67.66
2018-07-10T20:40:31.463Z,67.68
2018-07-10T20:43:07.435Z,67.76
2018-07-10T20:45:46.540Z,67.61
2018-07-10T20:48:37.177Z,67.68
2018-07-10T20:51:08.531Z,67.54
2018-07-10T20:53:45.435Z,67.41
2018-07-10T20:56:20.767Z,67.07
2018-07-10T20:59:11.870Z,67.30
2018-07-10T21:01:42.214Z,67.51
2018-07-10T21:04:35.674Z,67.61
2018-07-10T21:07:12.132Z,67.19
2018-07-10T21:09:58.842Z,68.17
2018-07-10T21:12:34.699Z,68.54
2018-07-10T21:15:07.696Z,68.43
2018-07-10T21:17:45.669Z,68.74
2018-07-10T21:20:29.235Z,68.62
2018-07-10T21:23:21.411Z,68.63
2018-07-10T21:25:56.981Z,69.27
2018-07-10T21:29:07.147Z,69.49
2018-07-10T21:31:44.778Z,69.75
2018-07-10T21:34:19.439Z,70.16
2018-07-10T21:39:05.706Z,69.90
2018-07-10T21:41:46.571Z,71.01
2018-07-10T21:46:32.082Z,70.85
2018-07-10T21:49:12.721Z,72.48
2018-07-10T21:51:48.302Z,72.01
2018-07-10T21:54:18.167Z,71.82
2018-07-10T21:56:47.983Z,71.24
2018-07-10T21:59:19.256Z,71.88
2018-07-10T22:01:55.615Z,71.61
2018-07-10T22:04:28.903Z,71.37
2018-07-10T22:06:59.939Z,71.72
2018-07-10T22:09:30.980Z,71.65
2018-07-10T22:12:01.815Z,72.40
2018-07-10T22:14:31.867Z,72.31
2018-07-10T22:17:02.884Z,72.98
2018-07-10T22:19:35.917Z,72.75
2018-07-10T22:22:05.741Z,72.81
2018-07-10T22:24:35.804Z,72.68
2018-07-10T22:27:05.824Z,73.28
2018-07-10T22:29:40.996Z,72.97
2018-07-10T22:32:15.845Z,72.68
2018-07-10T22:34:45.905Z,72.93
2018-07-10T22:37:15.903Z,72.86
2018-07-10T22:39:45.790Z,72.91
2018-07-10T22:42:15.534Z,72.97
2018-07-10T22:44:50.206Z,73.01
2018-07-10T22:47:24.011Z,73.10
2018-07-10T22:49:55.319Z,73.65
2018-07-10T22:52:25.461Z,73.59
2018-07-10T22:54:55.151Z,73.81
2018-07-10T22:57:25.221Z,74.48
2018-07-10T22:59:54.996Z,75.48
2018-07-10T23:02:25.096Z,75.22
2018-07-10T23:04:54.733Z,74.89
2018-07-10T23:07:24.235Z,75.03
2018-07-10T23:09:53.776Z,74.48
2018-07-10T23:12:23.595Z,73.87
2018-07-10T23:14:53.383Z,74.49
2018-07-10T23:17:22.743Z,74.30
2018-07-10T23:19:52.236Z,74.31
2018-07-10T23:22:26.070Z,73.77
2018-07-10T23:24:55.792Z,73.18
2018-07-10T23:27:25.429Z,72.80
2018-07-10T23:29:55.174Z,72.89
2018-07-10T23:32:24.749Z,73.04
2018-07-10T23:34:54.408Z,73.77
2018-07-10T23:37:24.166Z,73.70
2018-07-10T23:39:57.845Z,73.90
2018-07-10T23:42:31.706Z,73.20
2018-07-10T23:45:35.360Z,73.19
2018-07-10T23:48:06.654Z,73.51
2018-07-10T23:50:37.290Z,73.26
2018-07-10T23:53:17.951Z,73.80
2018-07-10T23:55:47.806Z,73.80
2018-07-10T23:58:17.644Z,74.13
